createdAt,value
2018-05-24T00:01:28.199Z,77.04
2018-05-24T00:03:56.603Z,76.70
2018-05-24T00:06:25.243Z,75.69
2018-05-24T00:08:53.816Z,75.14
2018-05-24T00:11:22.807Z,75.28
2018-05-24T00:13:51.499Z,74.66
2018-05-24T00:16:20.293Z,75.78
2018-05-24T00:18:48.683Z,75.62
2018-05-24T00:21:17.198Z,75.39
2018-05-24T00:23:45.859Z,76.11
2018-05-24T00:26:14.718Z,76.73
2018-05-24T00:28:43.199Z,76.61
2018-05-24T00:31:11.605Z,76.27
2018-05-24T00:33:39.983Z,76.29
2018-05-24T00:36:08.895Z,76.77
2018-05-24T00:38:37.275Z,77.33
2018-05-24T00:41:05.686Z,78.27
2018-05-24T00:43:34.066Z,77.93
2018-05-24T00:46:02.478Z,77.88
2018-05-24T00:48:30.862Z,76.84
2018-05-24T00:50:59.276Z,76.18
2018-05-24T00:53:27.666Z,76.59
2018-05-24T00:55:56.067Z,76.84
2018-05-24T00:58:24.451Z,76.46
2018-05-24T01:00:52.867Z,77.33
2018-05-24T01:03:21.255Z,77.16
2018-05-24T01:05:49.672Z,76.88
2018-05-24T01:08:18.059Z,77.58
2018-05-24T01:10:46.462Z,77.86
2018-05-24T01:13:14.851Z,76.34
2018-05-24T01:15:43.256Z,77.10
2018-05-24T01:18:11.636Z,77.18
2018-05-24T01:20:40.039Z,76.82
2018-05-24T01:23:08.431Z,77.55
2018-05-24T01:25:36.839Z,77.25
2018-05-24T01:28:05.219Z,77.76
2018-05-24T01:30:33.629Z,78.17
2018-05-24T01:33:02.025Z,78.88
2018-05-24T01:35:30.431Z,79.20
2018-05-24T01:37:59.047Z,79.54
2018-05-24T01:40:27.448Z,79.47
2018-05-24T01:42:55.835Z,80.45
2018-05-24T01:45:24.243Z,80.91
2018-05-24T01:47:52.634Z,81.08
2018-05-24T01:50:21.039Z,80.68
2018-05-24T01:52:49.419Z,80.84
2018-05-24T01:55:17.851Z,81.32
2018-05-24T01:57:46.447Z,82.14
2018-05-24T02:00:14.989Z,82.38
2018-05-24T02:02:43.852Z,82.40
2018-05-24T02:05:12.773Z,82.37
2018-05-24T02:07:41.584Z,82.37
2018-05-24T02:10:10.351Z,82.45
2018-05-24T02:12:38.931Z,82.29
2018-05-24T02:15:07.340Z,82.01
2018-05-24T02:17:36.139Z,80.48
2018-05-24T02:20:04.555Z,79.75
2018-05-24T02:22:33.037Z,78.75
2018-05-24T02:25:01.446Z,79.72
2018-05-24T02:27:30.615Z,79.07
2018-05-24T02:29:59.019Z,78.73
2018-05-24T02:32:28.173Z,79.49
2018-05-24T02:34:56.588Z,77.64
2018-05-24T02:37:25.906Z,77.48
2018-05-24T02:39:55.652Z,77.92
2018-05-24T02:42:24.611Z,77.59
2018-05-24T02:44:53.471Z,77.55
2018-05-24T02:47:21.879Z,76.42
2018-05-24T02:49:50.743Z,76.13
2018-05-24T02:52:19.248Z,75.04
2018-05-24T02:54:47.704Z,75.21
2018-05-24T02:57:16.213Z,75.26
2018-05-24T02:59:45.072Z,74.45
2018-05-24T03:02:13.962Z,74.01
2018-05-24T03:04:42.594Z,73.63
2018-05-24T03:07:11.001Z,73.60
2018-05-24T03:09:39.641Z,73.86
2018-05-24T03:12:08.191Z,73.12
2018-05-24T03:14:36.571Z,73.30
2018-05-24T03:17:04.985Z,73.44
2018-05-24T03:19:33.729Z,72.97
2018-05-24T03:22:02.136Z,72.30
2018-05-24T03:24:30.514Z,72.60
2018-05-24T03:26:58.919Z,72.00
2018-05-24T03:29:28.391Z,71.77
2018-05-24T03:31:57.163Z,71.20
2018-05-24T03:34:25.539Z,70.79
2018-05-24T03:36:53.971Z,70.78
2018-05-24T03:39:23.078Z,70.63
2018-05-24T03:41:51.484Z,70.14
2018-05-24T03:44:20.682Z,70.19
2018-05-24T03:46:49.326Z,70.92
2018-05-24T03:49:18.579Z,71.04
2018-05-24T03:51:48.331Z,71.00
2018-05-24T03:54:16.960Z,71.06
2018-05-24T03:56:45.917Z,71.64
2018-05-24T04:02:46.892Z,71.13
2018-05-24T04:05:16.141Z,71.40
2018-05-24T04:07:44.936Z,71.28
2018-05-24T04:10:13.440Z,72.04
2018-05-24T04:12:41.847Z,72.16
2018-05-24T04:15:10.965Z,72.51
2018-05-24T04:17:39.814Z,73.02
2018-05-24T04:20:08.747Z,72.41
2018-05-24T04:22:37.299Z,73.17
2018-05-24T04:25:06.092Z,72.23
2018-05-24T04:27:34.782Z,72.19
2018-05-24T04:30:03.173Z,72.56
2018-05-24T04:32:31.591Z,72.04
2018-05-24T04:35:00.724Z,72.63
2018-05-24T04:37:29.211Z,72.61
2018-05-24T04:39:57.598Z,72.32
2018-05-24T04:42:26.175Z,73.02
2018-05-24T04:44:55.167Z,73.10
2018-05-24T04:47:23.571Z,72.29
2018-05-24T04:49:51.947Z,72.23
2018-05-24T04:52:20.343Z,72.23
2018-05-24T04:54:48.716Z,71.30
2018-05-24T04:57:17.120Z,71.48
2018-05-24T04:59:46.367Z,71.37
2018-05-24T05:02:15.428Z,72.03
2018-05-24T05:04:44.547Z,71.10
2018-05-24T05:07:12.990Z,71.52
2018-05-24T05:09:42.195Z,71.04
2018-05-24T05:12:11.348Z,70.96
2018-05-24T05:14:39.738Z,70.91
2018-05-24T05:17:08.523Z,70.93
2018-05-24T05:19:36.971Z,70.16
2018-05-24T05:22:05.475Z,70.12
2018-05-24T05:24:34.117Z,69.70
2018-05-24T05:27:02.980Z,69.47
2018-05-24T05:29:31.347Z,70.30
2018-05-24T05:31:59.804Z,69.74
2018-05-24T05:34:28.451Z,69.59
2018-05-24T05:36:57.194Z,69.12
2018-05-24T05:39:26.047Z,69.77
2018-05-24T05:41:54.448Z,70.63
2018-05-24T05:44:22.818Z,70.69
2018-05-24T05:46:51.210Z,71.63
2018-05-24T05:49:19.582Z,71.54
2018-05-24T05:51:47.977Z,71.37
2018-05-24T05:54:16.346Z,71.43
2018-05-24T05:56:44.751Z,72.01
2018-05-24T05:59:13.135Z,71.49
2018-05-24T06:01:41.704Z,68.93
2018-05-24T06:04:10.068Z,66.98
2018-05-24T06:06:38.652Z,64.59
2018-05-24T06:09:07.895Z,61.36
2018-05-24T06:11:36.282Z,60.74
2018-05-24T06:14:04.662Z,61.88
2018-05-24T06:16:33.054Z,62.63
2018-05-24T06:19:01.427Z,62.10
2018-05-24T06:21:29.841Z,60.32
2018-05-24T06:23:58.199Z,59.43
2018-05-24T06:26:26.605Z,57.50
2018-05-24T06:28:54.962Z,56.47
2018-05-24T06:31:23.355Z,57.06
2018-05-24T06:33:51.732Z,58.57
2018-05-24T06:36:20.119Z,58.49
2018-05-24T06:38:48.482Z,56.35
2018-05-24T06:41:16.871Z,53.70
2018-05-24T06:43:45.243Z,52.74
2018-05-24T06:46:13.655Z,53.41
2018-05-24T06:48:42.019Z,53.01
2018-05-24T06:51:10.396Z,51.33
2018-05-24T06:53:38.812Z,50.60
2018-05-24T06:56:07.268Z,47.04
2018-05-24T06:58:35.562Z,46.57
2018-05-24T07:01:03.940Z,48.78
2018-05-24T07:03:32.694Z,46.78
2018-05-24T07:06:01.672Z,44.71
2018-05-24T07:08:30.183Z,44.68
2018-05-24T07:10:59.483Z,44.56
2018-05-24T07:13:28.174Z,44.62
2018-05-24T07:15:57.279Z,42.48
2018-05-24T07:18:25.873Z,43.83
2018-05-24T07:20:54.520Z,45.67
2018-05-24T07:23:23.124Z,44.83
2018-05-24T07:25:51.599Z,42.15
2018-05-24T07:28:20.023Z,44.70
2018-05-24T07:30:48.922Z,46.97
2018-05-24T07:33:17.562Z,51.23
2018-05-24T07:35:45.976Z,53.67
2018-05-24T07:38:14.527Z,55.55
2018-05-24T07:40:42.903Z,56.34
2018-05-24T07:43:11.998Z,56.70
2018-05-24T07:45:40.503Z,58.54
2018-05-24T07:48:08.975Z,58.61
2018-05-24T07:50:37.356Z,59.54
2018-05-24T07:53:05.939Z,59.90
2018-05-24T07:55:34.311Z,60.33
2018-05-24T07:58:02.893Z,58.39
2018-05-24T08:00:31.263Z,58.42
2018-05-24T08:02:59.949Z,58.72
2018-05-24T08:05:28.647Z,59.15
2018-05-24T08:07:57.338Z,58.26
2018-05-24T08:10:26.227Z,56.30
2018-05-24T08:12:55.172Z,55.58
2018-05-24T08:15:24.203Z,54.79
2018-05-24T08:17:52.595Z,54.52
2018-05-24T08:20:21.075Z,52.53
2018-05-24T08:22:49.760Z,50.53
2018-05-24T08:25:18.763Z,50.01
2018-05-24T08:27:47.239Z,50.60
2018-05-24T08:30:16.435Z,51.83
2018-05-24T08:32:44.836Z,54.18
2018-05-24T08:35:13.403Z,57.07
2018-05-24T08:37:42.839Z,56.59
2018-05-24T08:40:11.691Z,56.06
2018-05-24T08:42:40.690Z,55.22
2018-05-24T08:45:09.527Z,51.32
2018-05-24T08:47:38.756Z,49.66
2018-05-24T08:50:07.499Z,48.01
2018-05-24T08:52:36.420Z,47.84
2018-05-24T08:55:04.970Z,50.48
2018-05-24T08:57:33.651Z,50.32
2018-05-24T09:00:02.107Z,49.29
2018-05-24T09:02:31.519Z,51.73
2018-05-24T09:05:00.163Z,50.70
2018-05-24T09:07:28.911Z,49.71
2018-05-24T09:09:57.938Z,45.45
2018-05-24T09:12:26.338Z,46.66
2018-05-24T09:14:55.034Z,47.02
2018-05-24T09:17:24.405Z,46.63
2018-05-24T09:19:53.033Z,49.09
2018-05-24T09:22:21.770Z,50.66
2018-05-24T09:24:50.615Z,50.97
2018-05-24T09:27:19.508Z,49.53
2018-05-24T09:29:48.271Z,49.73
2018-05-24T09:32:16.991Z,51.02
2018-05-24T09:34:45.396Z,49.53
2018-05-24T09:37:13.807Z,49.03
2018-05-24T09:39:42.201Z,49.21
2018-05-24T09:42:10.634Z,50.63
2018-05-24T09:44:38.991Z,51.51
2018-05-24T09:47:07.403Z,56.61
2018-05-24T09:49:35.797Z,57.53
2018-05-24T09:52:04.203Z,58.61
2018-05-24T09:54:32.579Z,60.47
2018-05-24T09:57:00.976Z,61.61
2018-05-24T09:59:29.362Z,61.67
2018-05-24T10:01:57.756Z,63.00
2018-05-24T10:04:26.168Z,62.10
2018-05-24T10:06:55.235Z,62.15
2018-05-24T10:09:23.688Z,62.78
2018-05-24T10:11:52.084Z,63.70
2018-05-24T10:14:21.331Z,61.88
2018-05-24T10:16:49.723Z,60.79
2018-05-24T10:19:18.875Z,60.24
2018-05-24T10:21:47.448Z,59.38
2018-05-24T10:24:16.411Z,60.25
2018-05-24T10:26:44.803Z,60.99
2018-05-24T10:29:14.178Z,61.72
2018-05-24T10:31:42.907Z,62.10
2018-05-24T10:34:11.604Z,64.95
2018-05-24T10:36:40.012Z,65.20
2018-05-24T10:39:09.119Z,65.44
2018-05-24T10:41:37.971Z,67.27
2018-05-24T10:44:06.375Z,67.65
2018-05-24T10:46:34.766Z,67.75
2018-05-24T10:49:03.176Z,68.77
2018-05-24T10:51:32.659Z,69.58
2018-05-24T10:54:01.080Z,70.15
2018-05-24T10:56:30.212Z,70.23
2018-05-24T10:58:58.887Z,70.44
2018-05-24T11:01:27.680Z,69.70
2018-05-24T11:03:56.347Z,69.52
2018-05-24T11:06:25.111Z,68.46
2018-05-24T11:08:53.925Z,69.47
2018-05-24T11:11:22.315Z,68.59
2018-05-24T11:13:50.715Z,68.38
2018-05-24T11:16:19.107Z,67.94
2018-05-24T11:18:47.516Z,67.39
2018-05-24T11:21:15.907Z,68.16
2018-05-24T11:23:44.310Z,66.91
2018-05-24T11:26:12.701Z,67.31
2018-05-24T11:28:41.107Z,66.77
2018-05-24T11:31:09.499Z,65.99
2018-05-24T11:33:37.912Z,65.06
2018-05-24T11:36:06.303Z,62.85
2018-05-24T11:38:34.706Z,57.42
2018-05-24T11:41:03.420Z,51.37
2018-05-24T11:43:31.850Z,45.24
2018-05-24T11:46:01.121Z,42.65
2018-05-24T11:48:29.646Z,45.24
2018-05-24T11:50:58.037Z,46.42
2018-05-24T11:53:26.495Z,50.86
2018-05-24T11:55:56.675Z,47.39
2018-05-24T11:58:25.471Z,44.40
2018-05-24T12:00:54.092Z,43.26
2018-05-24T12:03:22.508Z,41.71
2018-05-24T12:05:51.775Z,42.78
2018-05-24T12:08:20.555Z,43.75
2018-05-24T12:10:49.360Z,47.23
2018-05-24T12:13:18.027Z,50.46
2018-05-24T12:15:47.292Z,52.49
2018-05-24T12:18:16.186Z,51.75
2018-05-24T12:20:45.143Z,51.14
2018-05-24T12:23:13.997Z,49.87
2018-05-24T12:25:42.911Z,50.94
2018-05-24T12:28:11.751Z,51.36
2018-05-24T12:30:40.318Z,50.83
2018-05-24T12:33:09.466Z,52.61
2018-05-24T12:35:38.364Z,52.17
2018-05-24T12:38:07.187Z,55.06
2018-05-24T12:40:35.979Z,55.75
2018-05-24T12:43:04.424Z,53.59
2018-05-24T12:45:33.403Z,54.12
2018-05-24T12:48:02.408Z,53.06
2018-05-24T12:50:31.455Z,53.04
2018-05-24T12:52:59.891Z,54.13
2018-05-24T12:55:29.151Z,52.71
2018-05-24T12:57:58.159Z,51.56
2018-05-24T13:00:26.535Z,52.85
2018-05-24T13:02:55.156Z,53.17
2018-05-24T13:05:24.818Z,51.58
2018-05-24T13:07:53.779Z,49.30
2018-05-24T13:10:22.618Z,46.39
2018-05-24T13:12:51.323Z,48.26
2018-05-24T13:15:20.267Z,48.96
2018-05-24T13:17:48.693Z,48.53
2018-05-24T13:20:17.302Z,43.90
2018-05-24T13:22:46.270Z,42.90
2018-05-24T13:25:15.523Z,41.80
2018-05-24T13:27:44.495Z,42.51
2018-05-24T13:30:13.268Z,43.68
2018-05-24T13:32:42.743Z,43.11
2018-05-24T13:35:11.131Z,43.44
2018-05-24T13:37:39.725Z,42.38
2018-05-24T13:40:08.135Z,39.01
2018-05-24T13:42:36.514Z,39.60
2018-05-24T13:45:04.934Z,39.84
2018-05-24T13:47:33.309Z,36.00
2018-05-24T13:50:01.729Z,38.39
2018-05-24T13:52:30.116Z,39.94
2018-05-24T13:54:58.527Z,40.67
2018-05-24T13:57:38.800Z,39.91
2018-05-24T14:00:07.208Z,42.27
2018-05-24T14:02:35.595Z,45.75
2018-05-24T14:05:04.008Z,49.27
2018-05-24T14:07:32.394Z,49.53
2018-05-24T14:10:01.246Z,51.84
2018-05-24T14:12:29.728Z,52.56
2018-05-24T14:14:58.152Z,55.00
2018-05-24T14:17:26.564Z,54.59
2018-05-24T14:19:55.184Z,54.49
2018-05-24T14:22:24.299Z,54.04
2018-05-24T14:24:53.166Z,56.50
2018-05-24T14:27:21.934Z,56.62
2018-05-24T14:29:50.343Z,56.03
2018-05-24T14:32:20.018Z,56.79
2018-05-24T14:34:48.799Z,56.91
2018-05-24T14:37:17.186Z,57.42
2018-05-24T14:39:46.111Z,56.52
2018-05-24T14:42:14.511Z,57.04
2018-05-24T14:44:42.923Z,57.92
2018-05-24T14:47:11.314Z,58.79
2018-05-24T14:49:39.714Z,60.09
2018-05-24T14:52:08.107Z,59.34
2018-05-24T14:54:36.523Z,59.82
2018-05-24T14:57:04.912Z,58.93
2018-05-24T14:59:33.323Z,58.76
2018-05-24T15:02:01.705Z,58.82
2018-05-24T15:04:30.115Z,59.15
2018-05-24T15:06:58.511Z,59.53
2018-05-24T15:09:27.371Z,59.67
2018-05-24T15:11:55.763Z,60.58
2018-05-24T15:14:24.347Z,61.48
2018-05-24T15:16:53.166Z,61.56
2018-05-24T15:19:21.952Z,61.10
2018-05-24T15:21:50.971Z,62.13
2018-05-24T15:24:20.228Z,60.38
2018-05-24T15:26:48.634Z,60.22
2018-05-24T15:29:17.155Z,62.40
2018-05-24T15:31:45.871Z,65.73
2018-05-24T15:34:14.279Z,67.49
2018-05-24T15:36:43.474Z,64.60
2018-05-24T15:39:12.632Z,67.84
2018-05-24T15:41:41.542Z,65.74
2018-05-24T15:44:10.380Z,65.24
2018-05-24T15:46:38.758Z,66.93
2018-05-24T15:49:07.159Z,66.58
2018-05-24T15:51:35.539Z,65.64
2018-05-24T15:54:03.948Z,65.25
2018-05-24T15:56:32.341Z,66.22
2018-05-24T15:59:00.753Z,65.89
2018-05-24T16:01:29.138Z,66.61
2018-05-24T16:03:57.565Z,63.52
2018-05-24T16:06:25.971Z,62.92
2018-05-24T16:08:54.379Z,65.41
2018-05-24T16:11:23.003Z,63.47
2018-05-24T16:13:51.467Z,63.32
2018-05-24T16:16:19.820Z,65.17
2018-05-24T16:18:48.218Z,63.58
2018-05-24T16:21:16.603Z,63.83
2018-05-24T16:23:44.996Z,64.79
2018-05-24T16:26:13.370Z,65.56
2018-05-24T16:28:41.766Z,65.14
2018-05-24T16:31:10.139Z,65.07
2018-05-24T16:33:38.535Z,66.13
2018-05-24T16:36:06.914Z,65.14
2018-05-24T16:38:35.283Z,65.96
2018-05-24T16:41:03.675Z,65.88
2018-05-24T16:43:32.083Z,65.91
2018-05-24T16:46:00.471Z,65.56
2018-05-24T16:48:28.856Z,66.54
2018-05-24T16:50:57.258Z,67.44
2018-05-24T16:53:25.634Z,66.86
2018-05-24T16:55:54.038Z,66.95
2018-05-24T16:58:22.412Z,66.86
2018-05-24T17:00:50.809Z,67.51
2018-05-24T17:03:19.180Z,67.29
2018-05-24T17:05:47.574Z,67.81
2018-05-24T17:08:15.961Z,68.27
2018-05-24T17:10:44.397Z,68.19
2018-05-24T17:13:13.087Z,68.32
2018-05-24T17:15:41.475Z,68.68
2018-05-24T17:18:09.852Z,69.28
2018-05-24T17:20:38.264Z,69.17
2018-05-24T17:23:06.927Z,69.27
2018-05-24T17:25:35.919Z,69.69
2018-05-24T17:28:05.335Z,70.31
2018-05-24T17:30:33.722Z,70.84
2018-05-24T17:33:02.269Z,70.74
2018-05-24T17:35:30.874Z,70.46
2018-05-24T17:37:59.582Z,70.55
2018-05-24T17:40:28.347Z,70.73
2018-05-24T17:42:56.723Z,71.05
2018-05-24T17:45:25.124Z,70.26
2018-05-24T17:47:53.507Z,71.12
2018-05-24T17:50:21.920Z,70.24
2018-05-24T17:52:50.298Z,70.78
2018-05-24T17:55:18.695Z,71.18
2018-05-24T17:57:47.074Z,71.94
2018-05-24T18:00:15.608Z,72.38
2018-05-24T18:02:43.998Z,72.02
2018-05-24T18:05:12.420Z,72.31
2018-05-24T18:07:40.799Z,73.09
2018-05-24T18:10:10.131Z,73.77
2018-05-24T18:12:39.028Z,74.01
2018-05-24T18:15:07.435Z,74.78
2018-05-24T18:17:36.079Z,74.22
2018-05-24T18:20:05.080Z,74.10
2018-05-24T18:22:34.548Z,75.66
2018-05-24T18:25:03.084Z,76.06
2018-05-24T18:27:31.556Z,76.05
2018-05-24T18:30:00.275Z,76.23
2018-05-24T18:32:29.507Z,76.38
2018-05-24T18:34:57.919Z,76.09
2018-05-24T18:37:26.309Z,75.62
2018-05-24T18:39:54.720Z,75.98
2018-05-24T18:42:23.110Z,76.51
2018-05-24T18:44:51.513Z,76.24
2018-05-24T18:47:19.883Z,76.63
2018-05-24T18:49:48.291Z,76.86
2018-05-24T18:52:16.658Z,77.08
2018-05-24T18:54:45.059Z,77.25
2018-05-24T18:57:13.440Z,77.58
2018-05-24T18:59:41.842Z,78.18
2018-05-24T19:02:10.370Z,77.93
2018-05-24T19:04:38.836Z,78.05
2018-05-24T19:07:07.155Z,78.53
2018-05-24T19:09:35.547Z,78.99
2018-05-24T19:12:03.931Z,79.39
2018-05-24T19:14:32.711Z,79.78
2018-05-24T19:17:01.743Z,80.09
2018-05-24T19:19:30.194Z,79.93
2018-05-24T19:21:59.511Z,79.99
2018-05-24T19:24:28.500Z,80.14
2018-05-24T19:26:57.139Z,80.07
2018-05-24T19:29:25.680Z,80.37
2018-05-24T19:31:55.023Z,80.53
2018-05-24T19:34:23.947Z,80.46
2018-05-24T19:36:52.884Z,80.64
2018-05-24T19:39:21.939Z,80.88
2018-05-24T19:41:51.008Z,81.05
2018-05-24T19:44:19.947Z,81.18
2018-05-24T19:46:48.872Z,81.17
2018-05-24T19:49:17.754Z,81.29
2018-05-24T19:51:46.672Z,81.27
2018-05-24T19:54:15.424Z,81.80
2018-05-24T19:56:44.059Z,81.72
2018-05-24T19:59:12.772Z,82.06
2018-05-24T20:01:41.606Z,82.67
2018-05-24T20:04:10.306Z,83.03
2018-05-24T20:06:39.466Z,83.21
2018-05-24T20:09:09.205Z,83.44
2018-05-24T20:11:37.837Z,83.23
2018-05-24T20:14:07.290Z,83.22
2018-05-24T20:16:35.707Z,83.17
2018-05-24T20:19:04.091Z,83.13
2018-05-24T20:21:32.583Z,83.52
2018-05-24T20:24:00.976Z,83.82
2018-05-24T20:26:29.392Z,83.25
2018-05-24T20:28:57.779Z,84.05
2018-05-24T20:31:26.187Z,84.14
2018-05-24T20:33:54.627Z,84.33
2018-05-24T20:36:23.007Z,84.44
2018-05-24T20:38:51.388Z,84.17
2018-05-24T20:41:19.791Z,84.42
2018-05-24T20:43:48.176Z,84.87
2018-05-24T20:46:16.583Z,84.77
2018-05-24T20:48:44.960Z,85.16
2018-05-24T20:51:13.371Z,85.31
2018-05-24T20:53:41.769Z,85.05
2018-05-24T20:56:10.174Z,84.97
2018-05-24T20:58:38.559Z,85.28
2018-05-24T21:01:06.967Z,85.27
2018-05-24T21:03:35.355Z,85.45
2018-05-24T21:06:03.763Z,85.33
2018-05-24T21:08:32.155Z,85.38
2018-05-24T21:11:00.563Z,85.50
2018-05-24T21:13:28.951Z,85.49
2018-05-24T21:15:57.365Z,85.66
2018-05-24T21:18:26.528Z,85.62
2018-05-24T21:20:55.485Z,85.53
2018-05-24T21:23:23.998Z,85.50
2018-05-24T21:25:52.974Z,85.36
2018-05-24T21:28:21.467Z,85.40
2018-05-24T21:30:49.866Z,85.48
2018-05-24T21:33:18.267Z,85.74
2018-05-24T21:35:46.683Z,85.65
2018-05-24T21:38:15.064Z,85.61
2018-05-24T21:40:43.475Z,85.75
2018-05-24T21:43:11.864Z,85.69
2018-05-24T21:45:40.275Z,85.38
2018-05-24T21:48:08.667Z,85.37
2018-05-24T21:50:37.079Z,85.62
2018-05-24T21:53:05.470Z,85.40
2018-05-24T21:55:33.870Z,85.65
2018-05-24T21:58:02.261Z,84.91
2018-05-24T22:00:30.663Z,85.10
2018-05-24T22:02:59.062Z,85.79
2018-05-24T22:05:27.481Z,85.68
2018-05-24T22:07:55.867Z,85.69
2018-05-24T22:10:24.285Z,85.91
2018-05-24T22:12:52.681Z,86.10
2018-05-24T22:15:21.078Z,86.41
2018-05-24T22:17:49.706Z,86.78
2018-05-24T22:20:18.390Z,87.05
2018-05-24T22:22:46.935Z,86.97
2018-05-24T22:25:15.364Z,86.41
2018-05-24T22:27:44.968Z,86.55
2018-05-24T22:30:13.999Z,86.79
2018-05-24T22:32:43.170Z,86.86
2018-05-24T22:35:12.563Z,86.91
2018-05-24T22:37:41.055Z,86.82
2018-05-24T22:40:09.513Z,86.81
2018-05-24T22:42:37.987Z,87.13
2018-05-24T22:45:06.467Z,86.91
2018-05-24T22:47:35.423Z,86.37
2018-05-24T22:50:04.390Z,86.29
2018-05-24T22:52:32.808Z,86.15
2018-05-24T22:55:01.551Z,86.37
2018-05-24T22:57:30.043Z,86.62
2018-05-24T22:59:58.427Z,85.97
2018-05-24T23:02:27.116Z,85.99
2018-05-24T23:04:55.784Z,85.48
2018-05-24T23:07:24.143Z,85.70
2018-05-24T23:09:52.815Z,85.17
2018-05-24T23:12:21.298Z,85.18
2018-05-24T23:14:49.690Z,85.22
2018-05-24T23:17:18.175Z,85.73
2018-05-24T23:19:47.115Z,85.67
2018-05-24T23:22:27.308Z,85.88
2018-05-24T23:24:56.508Z,85.87
2018-05-24T23:27:25.292Z,85.95
2018-05-24T23:29:54.323Z,85.68
2018-05-24T23:32:23.019Z,85.73
2018-05-24T23:34:51.372Z,85.24
2018-05-24T23:37:20.102Z,85.54
2018-05-24T23:39:48.491Z,85.50
2018-05-24T23:42:16.912Z,85.84
2018-05-24T23:44:46.164Z,86.40
2018-05-24T23:47:14.894Z,86.72
2018-05-24T23:49:44.132Z,87.22
2018-05-24T23:52:12.899Z,87.10
2018-05-24T23:54:41.899Z,87.34
2018-05-24T23:57:10.376Z,86.77
2018-05-24T23:59:38.768Z,87.24
